Athens, OH

5:47 PM EST on November 15, 2019 (GMT -0500)
Ohio University

Weather History for KUNI - September, 2019

Change the Weather History Date:

Monday, September 30, 2019

  Actual Average (KPKB) Record (KPKB)
Temperature  
Mean Temperature 77 °F -  
Max Temperature 91 °F 71 °F 95 °F (1953)
Min Temperature 63 °F 51 °F 33 °F (1935)
Cooling Degree Days 12    
Growing Degree Days 27 (Base 50)    
Moisture  
Dew Point 65 °F    
Average Humidity 76    
Maximum Humidity 100    
Minimum Humidity 35    
Precipitation  
Precipitation 0.00 in - - ()
Sea Level Pressure  
Sea Level Pressure 30.13 in    
Wind  
Wind Speed 1 mph (NW)    
Max Wind Speed 9 mph    
Max Gust Speed -    
Visibility 9 miles    
Events      
Averages and records for this station are not official NWS values.
T = Trace of Precipitation, MM = Missing Value Source: NWS Daily Summary

Daily Weather History Graph

Daily Weather History Graph

Search for Another Location

Airport or City:

Astronomy

Sep. 30, 2019 Rise Set
Actual Time 7:23 AM EDT 7:13 PM EDT
Civil Twilight 6:57 AM EDT 7:40 PM EDT
Nautical Twilight 6:26 AM EDT 8:11 PM EDT
Astronomical Twilight 5:54 AM EDT 8:42 PM EDT
Moon 9:25 AM EDT (9/30) 8:49 PM EDT (9/30)
Length of Visible Light 12h 43m
Length of Day
11h 49m
Waxing Crescent, 5% of the Moon is Illuminated
Sep 30
Waxing Crescent
Oct 5
First Quarter
Oct 13
Full
Oct 21
Last Quarter
Oct 27
New

Hourly Weather History & Observations

Time (EDT) Temp. Heat Index Dew Point Humidity Pressure Visibility Wind Dir Wind Speed Gust Speed Precip Events Conditions
12:15 AM 69.1 °F - 69.1 °F 100% 30.18 in 10.0 mi Calm Calm - N/A   Clear
12:35 AM 67.8 °F - 67.8 °F 100% 30.18 in 10.0 mi Calm Calm - N/A   Clear
12:55 AM 68.2 °F - 68.2 °F 100% 30.17 in 10.0 mi Calm Calm - N/A   Clear
1:15 AM 68.0 °F - 68.0 °F 100% 30.17 in 10.0 mi Calm Calm - N/A   Clear
1:35 AM 67.3 °F - 67.3 °F 100% 30.17 in 7.0 mi Calm Calm - N/A   Clear
1:55 AM 67.1 °F - 67.1 °F 100% 30.17 in 10.0 mi Calm Calm - N/A   Clear
2:15 AM 67.3 °F - 67.3 °F 100% 30.16 in 7.0 mi Calm Calm - N/A   Clear
2:35 AM 67.1 °F - 67.1 °F 100% 30.15 in 10.0 mi Calm Calm - N/A   Clear
2:55 AM 67.1 °F - 67.1 °F 100% 30.15 in 10.0 mi Calm Calm - N/A   Clear
3:15 AM 66.9 °F - 66.9 °F 100% 30.14 in 10.0 mi Calm Calm - N/A   Clear
3:35 AM 66.4 °F - 66.4 °F 100% 30.14 in 7.0 mi Calm Calm - N/A   Clear
3:55 AM 65.8 °F - 65.8 °F 100% 30.14 in 7.0 mi Calm Calm - N/A   Clear
4:15 AM 66.0 °F - 66.0 °F 100% 30.14 in 7.0 mi Calm Calm - N/A   Clear
4:35 AM 65.1 °F - 65.1 °F 100% 30.13 in 3.0 mi Calm Calm - N/A   Clear
4:55 AM 64.4 °F - 64.4 °F 100% 30.13 in 4.0 mi Calm Calm - N/A   Clear
5:15 AM 64.4 °F - 64.4 °F 100% 30.13 in 0.8 mi Calm Calm - N/A   Mostly Cloudy
5:35 AM 64.4 °F - 64.4 °F 100% 30.14 in 1.5 mi Calm Calm - N/A   Scattered Clouds
5:55 AM 63.7 °F - 63.7 °F 100% 30.14 in 2.5 mi Calm Calm - N/A   Clear
6:15 AM 63.3 °F - 63.3 °F 100% 30.14 in 2.5 mi Calm Calm - N/A   Clear
6:35 AM 63.5 °F - 63.5 °F 100% 30.15 in 10.0 mi Calm Calm - N/A   Clear
6:55 AM 63.5 °F - 63.5 °F 100% 30.15 in 7.0 mi Calm Calm - N/A   Clear
7:15 AM 63.1 °F - 63.1 °F 100% 30.15 in 7.0 mi Calm Calm - N/A   Clear
7:35 AM 63.0 °F - 63.0 °F 100% 30.15 in 5.0 mi Calm Calm - N/A   Scattered Clouds
7:55 AM 63.0 °F - 63.0 °F 100% 30.16 in 4.0 mi Calm Calm - N/A   Scattered Clouds
8:15 AM 63.9 °F - 63.9 °F 100% 30.16 in 5.0 mi Calm Calm - N/A   Mostly Cloudy
8:35 AM 65.3 °F - 65.3 °F 100% 30.17 in 10.0 mi Calm Calm - N/A   Mostly Cloudy
8:55 AM 68.0 °F - 68.0 °F 100% 30.17 in 7.0 mi Calm Calm - N/A   Mostly Cloudy
9:15 AM 70.2 °F - 70.2 °F 100% 30.17 in 10.0 mi Calm Calm - N/A   Scattered Clouds
9:35 AM 73.0 °F - 70.2 °F 91% 30.17 in 10.0 mi Calm Calm - N/A   Clear
9:55 AM 75.4 °F - 68.2 °F 78% 30.19 in 10.0 mi NNE 3.5 mph - N/A   Clear
10:15 AM 75.9 °F - 68.7 °F 78% 30.19 in 10.0 mi NE 9.2 mph - N/A   Clear
10:35 AM 77.0 °F - 68.4 °F 75% 30.19 in 10.0 mi Calm Calm - N/A   Clear
10:55 AM 78.4 °F - 67.8 °F 70% 30.19 in 10.0 mi Calm Calm - N/A   Clear
11:15 AM 80.4 °F 83.0 °F 67.8 °F 65% 30.18 in 10.0 mi Calm Calm - N/A   Clear
11:35 AM 82.2 °F 84.9 °F 67.5 °F 61% 30.18 in 10.0 mi North 4.6 mph - N/A   Clear
11:55 AM 83.5 °F 86.2 °F 67.5 °F 58% 30.17 in 10.0 mi Calm Calm - N/A   Clear
12:15 PM 86.5 °F 89.3 °F 67.3 °F 52% 30.17 in 10.0 mi West 4.6 mph - N/A   Clear
12:35 PM 87.8 °F 90.4 °F 66.2 °F 49% 30.16 in 10.0 mi Calm Calm - N/A   Clear
12:55 PM 89.6 °F 91.1 °F 64.6 °F 43% 30.15 in 10.0 mi WNW 9.2 mph - N/A   Clear
1:15 PM 89.2 °F 89.9 °F 62.8 °F 41% 30.14 in 10.0 mi NW 3.5 mph - N/A   Clear
1:35 PM 89.2 °F 89.9 °F 62.6 °F 41% 30.14 in 10.0 mi Calm Calm - N/A   Clear
1:55 PM 90.1 °F 90.6 °F 62.2 °F 39% 30.13 in 10.0 mi West 5.8 mph - N/A   Scattered Clouds
2:15 PM 89.8 °F 90.0 °F 61.5 °F 39% 30.12 in 10.0 mi NW 8.1 mph - N/A   Mostly Cloudy
2:35 PM 90.0 °F 90.0 °F 61.0 °F 38% 30.11 in 10.0 mi WSW 4.6 mph - N/A   Scattered Clouds
2:55 PM 90.5 °F 90.4 °F 61.0 °F 37% 30.11 in 10.0 mi NNW 4.6 mph - N/A   Scattered Clouds
3:15 PM 91.2 °F 91.1 °F 60.8 °F 36% 30.10 in 10.0 mi WNW 6.9 mph - N/A   Scattered Clouds
3:35 PM 91.0 °F 90.9 °F 60.6 °F 36% 30.10 in 10.0 mi NNW 4.6 mph - N/A   Mostly Cloudy
3:55 PM 91.9 °F 91.8 °F 60.4 °F 35% 30.09 in 10.0 mi West 5.8 mph - N/A   Mostly Cloudy
4:15 PM 89.8 °F 90.0 °F 61.5 °F 39% 30.09 in 10.0 mi North 5.8 mph - N/A   Scattered Clouds
4:35 PM 90.3 °F 90.8 °F 62.1 °F 39% 30.08 in 10.0 mi NNW 5.8 mph - N/A   Scattered Clouds
4:55 PM 90.5 °F 90.7 °F 61.9 °F 38% 30.08 in 10.0 mi NW 3.5 mph - N/A   Clear
5:15 PM 90.0 °F 90.0 °F 61.3 °F 38% 30.08 in 10.0 mi Calm Calm - N/A   Clear
5:35 PM 89.8 °F 89.7 °F 61.0 °F 38% 30.08 in 10.0 mi Calm Calm - N/A   Clear
5:55 PM 89.6 °F 90.1 °F 62.1 °F 40% 30.08 in 10.0 mi WNW 4.6 mph - N/A   Clear
6:15 PM 88.7 °F 89.1 °F 62.2 °F 41% 30.07 in 10.0 mi Calm Calm - N/A   Clear
6:35 PM 87.8 °F 88.5 °F 62.6 °F 43% 30.07 in 10.0 mi Calm Calm - N/A   Clear
6:55 PM 83.8 °F 85.8 °F 65.5 °F 54% 30.07 in 10.0 mi Calm Calm - N/A   Clear
7:15 PM 80.8 °F 82.6 °F 65.5 °F 59% 30.07 in 10.0 mi Calm Calm - N/A   Clear
7:35 PM 78.8 °F - 65.5 °F 64% 30.07 in 10.0 mi Calm Calm - N/A   Clear
7:55 PM 77.2 °F - 65.5 °F 67% 30.07 in 10.0 mi Calm Calm - N/A   Clear
8:15 PM 75.4 °F - 65.3 °F 71% 30.08 in 10.0 mi Calm Calm - N/A   Clear
8:35 PM 74.3 °F - 65.5 °F 74% 30.08 in 10.0 mi Calm Calm - N/A   Clear
8:55 PM 72.7 °F - 66.2 °F 80% 30.08 in 10.0 mi Calm Calm - N/A   Clear
9:15 PM 72.7 °F - 66.2 °F 80% 30.08 in 10.0 mi Calm Calm - N/A   Clear
9:35 PM 72.3 °F - 66.2 °F 81% 30.08 in 10.0 mi Calm Calm - N/A   Clear
9:55 PM 71.6 °F - 65.7 °F 81% 30.08 in 10.0 mi Calm Calm - N/A   Clear
10:15 PM 70.7 °F - 65.5 °F 83% 30.08 in 10.0 mi Calm Calm - N/A   Clear
10:35 PM 70.2 °F - 66.0 °F 87% 30.08 in 10.0 mi Calm Calm - N/A   Clear
10:55 PM 69.3 °F - 66.7 °F 92% 30.08 in 10.0 mi Calm Calm - N/A   Clear
11:15 PM 68.5 °F - 68.5 °F 100% 30.09 in 10.0 mi Calm Calm - N/A   Clear
11:35 PM 69.1 °F - 69.1 °F 100% 30.09 in 10.0 mi Calm Calm - N/A   Clear
11:55 PM 68.7 °F - 68.7 °F 100% 30.08 in 10.0 mi Calm Calm - N/A   Clear